^^
Datos históricos de la estación: Murcia-Puente Tocinos
Diario Informe para Noviembre 21, 2019 Unidades:  Ingés    Métrico   Ambas
Diario Semanal Mensual Anual
  Máxima: Mínima: Promedio:
Temperatura: 59.7 °F 45.9 °F 52.9 °F
Punto de rocio: 50.4 °F 42.8 °F 46.6 °F
Humedad: 90% 63% 80%
Velocidad viento: 5.2mph 0mph 2.9mph
Racha viento: 10.4mph - -
Viento- - Sur
Presión: 29.8 in 29.7 in -
Precipitación: 0.01 in    
 
 
Tabla de datos para Noviembre 21, 2019
Hora Temperatura Punto de rocio Presión Viento Velocidad viento Racha viento Humedad Intensidad lluvia(por hora) Nubes
00:04 52.5 °F 49.3 °F 29.8 in Calm     88.6% 0 in
00:09 52.5 °F 49.5 °F 29.8 in Calm     89% 0 in
00:14 52.5 °F 49.5 °F 29.8 in Calm     89% 0 in
00:19 52.5 °F 49.5 °F 29.8 in Calm   3.5 mph 89% 0 in
00:24 52.5 °F 49.5 °F 29.8 in ONO 0.9 mph 4.3 mph 89% 0 in
00:29 52.5 °F 49.1 °F 29.8 in SSE 1.4 mph 5.8 mph 88.3% 0 in
00:34 52.2 °F 48.9 °F 29.8 in SSE 2.4 mph 6 mph 88.8% 0 in
00:39 52 °F 48.7 °F 29.8 in SSE 2.9 mph 5 mph 89% 0 in
00:44 51.8 °F 48.6 °F 29.8 in Sur 3 mph 5.2 mph 89% 0 in
00:49 51.6 °F 48.6 °F 29.8 in SSE 3.1 mph 5.8 mph 89% 0 in
00:54 51.6 °F 48.6 °F 29.8 in SSE 3.4 mph 6.4 mph 89% 0 in
00:59 51.4 °F 48.4 °F 29.8 in SSE 3.6 mph 7 mph 89% 0 in
01:04 51.4 °F 48.4 °F 29.8 in SSE 2.7 mph 5 mph 89% 0 in
01:09 51.4 °F 48.4 °F 29.8 in SSE 2.4 mph 4.6 mph 89% 0 in
01:14 51.3 °F 48.2 °F 29.8 in SSE 2 mph 5.9 mph 89% 0 in
01:19 51.3 °F 48 °F 29.8 in SSE 1.8 mph 6.2 mph 89% 0 in
01:24 51.1 °F 48 °F 29.8 in Sur 3.4 mph 6 mph 89% 0 in
01:29 51.1 °F 48 °F 29.8 in SSE 4 mph 6.9 mph 89% 0 in
01:34 50.7 °F 47.7 °F 29.8 in SSE 3.7 mph 7 mph 89% 0 in
01:39 50.5 °F 47.5 °F 29.8 in SSO 3.6 mph 7 mph 89% 0 in
01:44 50.5 °F 47.5 °F 29.8 in SO 3.9 mph 6 mph 89% 0 in
01:49 50.7 °F 47.5 °F 29.8 in SO 4 mph 6.9 mph 89% 0 in
01:54 50.7 °F 47.5 °F 29.8 in SO 4 mph 7.4 mph 88.6% 0 in
01:59 50.9 °F 47.5 °F 29.8 in SSO 4 mph 7.6 mph 87.8% 0 in
02:04 51.1 °F 47.3 °F 29.8 in SSO 4.5 mph 9 mph 87% 0 in
02:09 51.3 °F 47.1 °F 29.8 in SSO 4.7 mph 8 mph 86% 0 in
02:14 51.3 °F 47.1 °F 29.8 in SSO 4.2 mph 7 mph 85.6% 0 in
02:19 51.3 °F 46.9 °F 29.8 in SSO 4 mph 8.1 mph 84.9% 0 in
02:24 51.4 °F 46.8 °F 29.8 in SSO 4 mph 8 mph 84% 0 in
02:29 51.4 °F 46.8 °F 29.8 in Sur 4 mph 6.2 mph 84% 0 in
02:34 51.4 °F 46.8 °F 29.8 in Sur 3.7 mph 6 mph 84% 0 in
02:39 51.3 °F 46.8 °F 29.8 in Sur 3.6 mph 5.8 mph 84.7% 0 in
02:44 51.1 °F 46.8 °F 29.8 in SSO 3.9 mph 6 mph 85% 0 in
02:49 51.1 °F 46.6 °F 29.8 in SSO 4 mph 6 mph 85% 0 in
02:54 50.7 °F 46.4 °F 29.8 in SSO 3.7 mph 6.2 mph 85% 0 in
02:59 50.7 °F 46.4 °F 29.8 in SO 3.6 mph 6 mph 85% 0 in
03:04 50.7 °F 46.4 °F 29.8 in SO 3.6 mph 6 mph 85% 0 in
03:09 50.5 °F 46.2 °F 29.8 in SO 3.6 mph 6 mph 85% 0 in
03:14 50.5 °F 46.2 °F 29.8 in SSO 3.9 mph 6.2 mph 85% 0 in
03:19 50.5 °F 46.2 °F 29.8 in SO 4 mph 7.4 mph 85% 0 in
03:24 50.5 °F 46.2 °F 29.8 in SO 4.2 mph 7 mph 84.9% 0 in
03:29 50.4 °F 45.9 °F 29.8 in SO 4.3 mph 7 mph 84% 0 in
03:34 50.4 °F 45.7 °F 29.8 in SSO 3.9 mph 7 mph 84% 0 in
03:39 50.4 °F 45.7 °F 29.8 in SSE 3.6 mph 8.1 mph 84% 0 in
03:44 50.2 °F 45.7 °F 29.8 in SSE 4.7 mph 8.1 mph 84.6% 0 in
03:49 49.8 °F 45.5 °F 29.8 in Sur 5.2 mph 8 mph 85% 0 in
03:54 49.6 °F 45.5 °F 29.8 in Sur 4.6 mph 7.4 mph 85.9% 0 in
03:59 49.3 °F 45.1 °F 29.8 in SSE 4.3 mph 8.1 mph 86% 0 in
04:04 48.7 °F 45 °F 29.8 in Sur 4.6 mph 8 mph 86.4% 0 in
04:09 48.6 °F 45 °F 29.8 in Sur 4.7 mph 7 mph 87% 0 in
04:14 48.7 °F 45 °F 29.8 in Sur 4.4 mph 7 mph 87% 0 in
04:19 48.7 °F 45 °F 29.8 in SO 4.3 mph 5.2 mph 87% 0 in
04:24 48.9 °F 45.1 °F 29.8 in OSO 3.5 mph 5.8 mph 87% 0 in
04:29 48.9 °F 45.1 °F 29.8 in Oeste 3.1 mph 6 mph 87% 0 in
04:34 48.7 °F 45 °F 29.8 in OSO 3.4 mph 6 mph 87% 0 in
04:39 48.6 °F 45 °F 29.8 in OSO 3.6 mph 6 mph 87% 0 in
04:44 48.6 °F 45 °F 29.8 in SO 3.1 mph 5.4 mph 87% 0 in
04:49 48.4 °F 44.8 °F 29.8 in SO 2.9 mph 5 mph 87% 0 in
04:54 48.4 °F 44.8 °F 29.8 in SSE 2.9 mph 5 mph 87% 0 in
04:59 48.4 °F 44.8 °F 29.8 in SSE 2.9 mph 5.2 mph 87% 0 in
05:04 48.2 °F 44.6 °F 29.8 in SE 3 mph 5.2 mph 87% 0 in
05:09 48 °F 44.2 °F 29.8 in SE 3.1 mph 5.9 mph 87% 0 in
05:14 47.8 °F 44.4 °F 29.8 in Sur 3.4 mph 6 mph 87.6% 0 in
05:19 47.7 °F 44.2 °F 29.8 in Sur 3.6 mph 6 mph 88% 0 in
05:24 47.7 °F 44.4 °F 29.8 in SSO 3.6 mph 6 mph 88% 0 in
05:29 47.8 °F 44.4 °F 29.8 in Sur 3.6 mph 6 mph 88% 0 in
05:34 47.8 °F 44.6 °F 29.8 in SO 3.6 mph 6 mph 88% 0 in
05:39 48 °F 44.6 °F 29.8 in Oeste 3.6 mph 5 mph 87.8% 0 in
05:44 48.2 °F 44.4 °F 29.8 in ONO 2.7 mph 5 mph 87% 0 in
05:49 48.2 °F 44.4 °F 29.8 in ONO 2.4 mph 3 mph 87% 0 in
05:54 48 °F 44.4 °F 29.8 in Oeste 1.7 mph 3.6 mph 87% 0 in
05:59 47.8 °F 44.1 °F 29.8 in SE 1.4 mph 5.2 mph 86.5% 0 in
06:04 47.7 °F 43.9 °F 29.8 in SE 1.7 mph 5 mph 87% 0 in
06:09 47.3 °F 43.7 °F 29.8 in SE 1.8 mph 2 mph 87% 0 in
06:14 47.1 °F 43.7 °F 29.8 in SE 0.6 mph   87.8% 0 in
06:19 47.1 °F 43.7 °F 29.8 in Calm   4.3 mph 88% 0 in
06:24 46.9 °F 43.7 °F 29.8 in SE 1.2 mph 8.5 mph 88% 0 in
06:29 46.6 °F 43.2 °F 29.8 in SE 1.8 mph 9 mph 88% 0 in
06:34 46.2 °F 43.2 °F 29.8 in SE 3.8 mph 6 mph 88.7% 0 in
06:39 46.2 °F 43.2 °F 29.8 in Sur 4.7 mph 10.4 mph 89% 0 in
06:44 46 °F 43 °F 29.8 in SO 4.4 mph 10 mph 89% 0 in
06:49 46.2 °F 43.2 °F 29.8 in SSO 4.3 mph 7 mph 89.3% 0 in
06:54 46.2 °F 43.3 °F 29.8 in Sur 2.7 mph 5 mph 89.8% 0 in
06:59 46.2 °F 43.3 °F 29.8 in Sur 2 mph 4 mph 89.7% 0 in
07:04 46.4 °F 43.3 °F 29.8 in SSE 1.9 mph 4.6 mph 89% 0 in
07:09 46.2 °F 43.2 °F 29.8 in SSE 1.8 mph 5.9 mph 89% 0 in
07:14 46.2 °F 43.2 °F 29.8 in SSE 2.2 mph 6 mph 89% 0 in
07:19 46 °F 43 °F 29.8 in Sur 2.4 mph 6.2 mph 89% 0 in
07:24 46 °F 43 °F 29.8 in Sur 3.5 mph 6.2 mph 89% 0 in
07:29 46 °F 43 °F 29.8 in Sur 4 mph 6.2 mph 89% 0 in
07:34 46 °F 43 °F 29.8 in Sur 3.7 mph 6 mph 89.2% 0 in
07:39 46 °F 43.3 °F 29.8 in SSO 3.6 mph 5.8 mph 90% 0 in
07:44 46.4 °F 43.5 °F 29.8 in Sur 3.1 mph 6 mph 89.8% 0 in
07:49 46.6 °F 43.3 °F 29.8 in SSE 2.9 mph 6.2 mph 89% 0 in
07:54 46.2 °F 43 °F 29.8 in SSE 3.7 mph 6.2 mph 88.1% 0 in
07:59 46 °F 43 °F 29.8 in SSE 4 mph 6.9 mph 88.7% 0 in
08:04 46 °F 43 °F 29.8 in SSE 4.2 mph 7 mph 89% 0 in
08:09 45.9 °F 42.8 °F 29.8 in SSE 4.3 mph 7 mph 89% 0 in
08:14 45.9 °F 42.8 °F 29.8 in SSE 4.1 mph 6.4 mph 89% 0 in
08:19 45.9 °F 42.8 °F 29.8 in Sur 4 mph 8.1 mph 89% 0 in
08:24 45.9 °F 42.8 °F 29.8 in Sur 4.5 mph 8 mph 89% 0 in
08:29 45.9 °F 43 °F 29.8 in Sur 4.7 mph 6 mph 89.6% 0 in
08:34 46 °F 43.2 °F 29.8 in Sur 3.6 mph 6.2 mph 90% 0 in
08:39 46.2 °F 43.5 °F 29.8 in SSO 3.1 mph 6.9 mph 90% 0 in
08:44 46.6 °F 43.5 °F 29.8 in Sur 3.5 mph 7 mph 89.3% 0 in
08:49 46.8 °F 43.7 °F 29.8 in Sur 3.6 mph 6.2 mph 89% 0 in
08:54 46.9 °F 43.7 °F 29.8 in SSE 3.2 mph 6 mph 88.4% 0 in
08:59 46.9 °F 43.7 °F 29.8 in SSE 3.1 mph 6 mph 88% 0 in
09:04 47.1 °F 43.7 °F 29.8 in Sur 3.5 mph 6.9 mph 88% 0 in
09:09 47.3 °F 43.7 °F 29.8 in SSO 3.6 mph 8.5 mph 87.3% 0 in
09:14 47.5 °F 43.9 °F 29.8 in OSO 4.3 mph 9 mph 87% 0 in
09:19 47.7 °F 44.1 °F 29.8 in Oeste 4.7 mph 7 mph 87% 0 in
09:24 47.7 °F 43.9 °F 29.8 in Oeste 3.6 mph 6.2 mph 86.2% 0 in
09:29 47.8 °F 43.9 °F 29.8 in Oeste 3.1 mph 6 mph 86% 0 in
09:34 47.8 °F 43.9 °F 29.8 in OSO 3 mph 5.9 mph 86% 0 in
09:39 47.8 °F 43.9 °F 29.8 in SSO 2.9 mph 6 mph 86% 0 in
09:44 48 °F 44.1 °F 29.8 in SSO 2.9 mph 5 mph 86% 0 in
09:49 48.4 °F 44.4 °F 29.8 in Sur 2.9 mph 6.9 mph 86% 0 in
09:54 48.7 °F 44.6 °F 29.8 in SSE 3.4 mph 7 mph 86% 0 in
09:59 48.7 °F 45 °F 29.8 in SSE 3.6 mph 6 mph 86.3% 0 in
10:04 48.9 °F 45 °F 29.8 in SSE 3.2 mph 5 mph 86% 0 in
10:09 49.1 °F 45.3 °F 29.8 in SSE 3.1 mph 5 mph 86.6% 0 in
10:14 49.5 °F 45.1 °F 29.8 in SSE 2.3 mph 5.2 mph 85.6% 0 in
10:19 49.5 °F 44.6 °F 29.8 in SSE 2 mph 8.1 mph 83.3% 0 in
10:24 49.5 °F 44.2 °F 29.8 in SSE 3.9 mph 8 mph 82% 0 in
10:29 49.5 °F 44.2 °F 29.8 in SSE 4.7 mph 7 mph 82% 0 in
10:34 49.6 °F 44.4 °F 29.8 in Sur 4.4 mph 6 mph 82% 0 in
10:39 49.8 °F 44.4 °F 29.8 in Sur 4.3 mph 6.9 mph 82% 0 in
10:44 50 °F 44.8 °F 29.8 in SSO 4.1 mph 7 mph 82% 0 in
10:49 50.4 °F 44.8 °F 29.8 in Sur 4 mph 6 mph 81.1% 0 in
10:54 50.5 °F 45 °F 29.8 in OSO 3.2 mph 6 mph 81% 0 in
10:59 50.9 °F 45.1 °F 29.8 in SO 2.9 mph 5 mph 80.8% 0 in
11:04 51.3 °F 45.3 °F 29.8 in SO 2.2 mph 5 mph 80% 0 in
11:09 51.6 °F 45.3 °F 29.8 in OSO 2 mph 4.6 mph 79.2% 0 in
11:14 52 °F 45.3 °F 29.8 in SSO 2.3 mph 5.2 mph 78% 0 in
11:19 52.2 °F 45.5 °F 29.8 in SSO 2.4 mph 5 mph 78% 0 in
11:24 52.3 °F 45.3 °F 29.8 in Sur 2.7 mph 5.2 mph 77% 0 in
11:29 52.7 °F 45.7 °F 29.8 in SSO 2.9 mph 5 mph 76.9% 0 in
11:34 53.1 °F 45.7 °F 29.8 in Oeste 2.5 mph 6.4 mph 75.6% 0 in
11:39 53.2 °F 45.5 °F 29.8 in SO 2.4 mph 7 mph 75% 0 in
11:44 53.4 °F 45.7 °F 29.8 in SO 2.7 mph 5 mph 74.9% 0 in
11:49 53.6 °F 45.5 °F 29.8 in OSO 2.9 mph 4 mph 74% 0 in
11:54 53.8 °F 45.7 °F 29.8 in OSO 2.5 mph 5 mph 74% 0 in
11:59 53.8 °F 46 °F 29.8 in OSO 2.4 mph 5 mph 74.8% 0 in
12:04 54 °F 46.2 °F 29.8 in ONO 2.4 mph 5 mph 75% 0 in
12:09 54 °F 46.2 °F 29.8 in ONO 2.4 mph 5 mph 75% 0 in
12:14 54 °F 46.2 °F 29.8 in Oeste 2.4 mph 5 mph 75% 0 in
12:19 54.1 °F 46 °F 29.8 in SSO 2.4 mph 4.7 mph 74.1% 0 in
12:24 54.3 °F 46.2 °F 29.8 in SSO 2.1 mph 5 mph 73.9% 0 in
12:29 54.9 °F 46.2 °F 29.8 in SO 2 mph 4.7 mph 73% 0 in
12:34 55 °F 46.2 °F 29.8 in Oeste 1.9 mph 5.9 mph 72.1% 0 in
12:39 55 °F 46.2 °F 29.8 in Oeste 1.8 mph 6.9 mph 72% 0 in
12:44 55 °F 46.2 °F 29.8 in OSO 3.4 mph 7 mph 72% 0 in
12:49 55 °F 46.2 °F 29.8 in OSO 4 mph 7 mph 72% 0 in
12:54 55.2 °F 46.2 °F 29.8 in OSO 3.2 mph 6 mph 71.7% 0 in
12:59 55.2 °F 46 °F 29.8 in SSO 2.9 mph 5.2 mph 71.2% 0 in
13:04 55.4 °F 46.2 °F 29.8 in SSO 2.9 mph 5 mph 71% 0 in
13:09 55.6 °F 46.4 °F 29.8 in Sur 2.9 mph 5 mph 71% 0 in
13:14 55.8 °F 46.4 °F 29.8 in ESE 2.3 mph 5 mph 71% 0 in
13:19 55.8 °F 46.6 °F 29.8 in SSE 2 mph 5.2 mph 71.1% 0 in
13:24 55.8 °F 46.8 °F 29.8 in SE 2.8 mph 5 mph 71.5% 0 in
13:29 55.6 °F 46.8 °F 29.8 in SSE 3.1 mph 5 mph 72% 0 in
13:34 55.6 °F 46.8 °F 29.8 in SSE 2.6 mph 5 mph 72% 0 in
13:39 55.8 °F 46.9 °F 29.8 in SSE 2.4 mph 4 mph 72.2% 0 in
13:44 55.8 °F 46.9 °F 29.8 in SSE 2 mph 3 mph 72% 0 in
13:49 55.8 °F 46.9 °F 29.8 in SSE 1.8 mph 4.6 mph 72% 0 in
13:54 55.9 °F 46.9 °F 29.8 in Sur 1.8 mph 5 mph 72% 0 in
13:59 55.9 °F 46.9 °F 29.8 in NO 1.8 mph 4.6 mph 71.8% 0 in
14:04 56.1 °F 46.8 °F 29.8 in NO 1.9 mph 5 mph 71% 0 in
14:09 56.1 °F 46.8 °F 29.8 in ONO 2 mph 4.6 mph 71% 0 in
14:14 56.1 °F 46.9 °F 29.8 in NNO 2 mph 5 mph 71% 0 in
14:19 56.5 °F 47.1 °F 29.8 in Oeste 2 mph 5 mph 71% 0 in
14:24 56.5 °F 47.3 °F 29.8 in OSO 1.9 mph 4 mph 71% 0 in
14:29 56.7 °F 46.9 °F 29.8 in OSO 1.8 mph 2 mph 69.9% 0 in
14:34 56.8 °F 46.8 °F 29.8 in OSO 0.6 mph 1 mph 69% 0 in
14:39 57 °F 46.6 °F 29.8 in Calm   4 mph 68% 0 in
14:44 57 °F 46.2 °F 29.8 in Sur 1 mph 5 mph 67% 0 in
14:49 57.4 °F 46.4 °F 29.8 in SSE 1.4 mph 5.2 mph 67% 0 in
14:54 57.4 °F 46.9 °F 29.8 in SSE 2.5 mph 6.2 mph 67.9% 0 in
14:59 57.4 °F 47.3 °F 29.8 in SE 3.1 mph 6.2 mph 69% 0 in
15:04 57.2 °F 46.9 °F 29.8 in SE 3.7 mph 6.9 mph 69% 0 in
15:09 57 °F 46.9 °F 29.8 in ESE 4 mph 7 mph 69% 0 in
15:14 57 °F 46.9 °F 29.8 in SE 3.7 mph 6 mph 69.3% 0 in
15:19 57.2 °F 47.1 °F 29.8 in SSE 3.6 mph 6 mph 69% 0 in
15:24 57.6 °F 47.5 °F 29.8 in SO 2.1 mph 4.7 mph 68.9% 0 in
15:29 57.9 °F 47.1 °F 29.8 in SSO 1.4 mph 5 mph 67.2% 0 in
15:34 58.5 °F 47.3 °F 29.8 in SSO 1.7 mph 5 mph 66.7% 0 in
15:39 58.8 °F 46.9 °F 29.8 in SSO 1.8 mph   64.7% 0 in
15:44 59.4 °F 47.1 °F 29.7 in SO 0.6 mph 3.6 mph 64% 0 in
15:49 59.5 °F 47.1 °F 29.7 in Calm   5.4 mph 63.7% 0 in
15:54 59.4 °F 47.3 °F 29.7 in North 2 mph 6 mph 64.2% 0 in
15:59 59.4 °F 47.5 °F 29.7 in NNO 2.9 mph 6 mph 64.5% 0 in
16:04 59.4 °F 46.9 °F 29.7 in NE 2.9 mph 5 mph 63.3% 0 in
16:09 59.4 °F 46.8 °F 29.8 in NE 2.9 mph 5 mph 63% 0 in
16:14 59.5 °F 46.9 °F 29.8 in ENE 2.1 mph 4.3 mph 63% 0 in
16:19 59.5 °F 46.9 °F 29.8 in NE 1.8 mph 5.2 mph 63% 0 in
16:24 59.5 °F 46.9 °F 29.8 in NE 1.9 mph 5 mph 63% 0 in
16:29 59.5 °F 46.9 °F 29.8 in ENE 2 mph 5 mph 63% 0 in
16:34 59.7 °F 47.1 °F 29.8 in NNE 2 mph 5 mph 63% 0 in
16:39 59.7 °F 47.1 °F 29.8 in NNE 2 mph 6.9 mph 63% 0 in
16:44 59.5 °F 46.9 °F 29.8 in NE 3.1 mph 7.4 mph 63% 0 in
16:49 59.5 °F 47.1 °F 29.8 in NE 3.6 mph 7 mph 63.6% 0 in
16:54 59.4 °F 47.3 °F 29.8 in NNE 4.1 mph 8.1 mph 64% 0 in
16:59 59.4 °F 47.1 °F 29.8 in NNE 4.3 mph 8 mph 64% 0 in
17:04 59.2 °F 47.3 °F 29.8 in NNE 4.6 mph 7 mph 64.8% 0 in
17:09 59.2 °F 47.3 °F 29.8 in NNE 4.7 mph 6.2 mph 65% 0 in
17:14 58.8 °F 47.3 °F 29.7 in NE 4.4 mph 8.1 mph 65.3% 0 in
17:19 58.8 °F 47.5 °F 29.7 in NE 4.3 mph 8 mph 66% 0 in
17:24 58.6 °F 47.3 °F 29.7 in NNE 4.3 mph 8.1 mph 66% 0 in
17:29 58.6 °F 47.3 °F 29.7 in NE 4.3 mph 8 mph 66% 0 in
17:34 58.6 °F 47.3 °F 29.7 in NNE 3.8 mph 6.9 mph 66% 0 in
17:39 58.6 °F 47.3 °F 29.7 in NNE 3.6 mph 7 mph 66% 0 in
17:44 58.5 °F 47.1 °F 29.7 in NNE 4.1 mph 8.1 mph 66% 0 in
17:49 58.5 °F 47.1 °F 29.7 in NNE 4.3 mph 8.1 mph 65.8% 0 in
17:54 58.5 °F 47.1 °F 29.7 in NE 4.6 mph 8.1 mph 65.9% 0 in
17:59 58.3 °F 46.9 °F 29.7 in NE 4.7 mph 8 mph 66% 0 in
18:04 58.5 °F 47.1 °F 29.7 in NNE 4.7 mph 7.4 mph 66% 0 in
18:09 58.5 °F 47.1 °F 29.7 in NNE 4.7 mph 8.5 mph 66% 0 in
18:14 58.3 °F 47.3 °F 29.7 in NE 4.4 mph 9 mph 66.9% 0 in
18:19 58.3 °F 47.5 °F 29.7 in NE 4.3 mph 6 mph 67% 0 in
18:24 58.1 °F 47.5 °F 29.7 in NE 3.5 mph 5 mph 67.9% 0 in
18:29 57.9 °F 47.7 °F 29.7 in NNE 3.1 mph 5 mph 68.6% 0 in
18:34 57.7 °F 47.7 °F 29.7 in North 3.1 mph 5.2 mph 69.1% 0 in
18:39 57.6 °F 47.8 °F 29.7 in North 3.1 mph 6 mph 70.1% 0 in
18:44 57.4 °F 48.2 °F 29.7 in North 3 mph 6 mph 71.2% 0 in
18:49 57.2 °F 48.4 °F 29.7 in NNE 2.9 mph 5 mph 72.3% 0 in
18:54 57 °F 48.4 °F 29.8 in NNE 2.9 mph 5 mph 73% 0 in
18:59 56.8 °F 48.6 °F 29.8 in NNE 2.9 mph 5 mph 74% 0 in
19:04 56.8 °F 48.6 °F 29.8 in NNE 2.9 mph 5 mph 74.1% 0 in
19:09 56.7 °F 48.7 °F 29.8 in NNE 2.9 mph 5 mph 75% 0 in
19:14 56.7 °F 48.7 °F 29.8 in NNE 2.1 mph 4 mph 75% 0 in
19:19 56.7 °F 48.9 °F 29.8 in NNE 1.8 mph 3.6 mph 75.1% 0 in
19:24 56.7 °F 49.1 °F 29.8 in NNE 1.8 mph 4.6 mph 76% 0 in
19:29 56.5 °F 49.1 °F 29.8 in NE 1.8 mph 5 mph 76% 0 in
19:34 56.5 °F 49.3 °F 29.8 in NNE 2.5 mph 5 mph 77% 0 in
19:39 56.3 °F 49.3 °F 29.8 in ESE 2.9 mph 5 mph 77% 0 in
19:44 56.1 °F 49.1 °F 29.8 in SSE 2.2 mph 5 mph 77% 0 in
19:49 56.1 °F 48.9 °F 29.8 in SSE 2 mph 5 mph 77% 0 in
19:54 56.1 °F 48.9 °F 29.8 in SSE 2 mph 4 mph 77% 0 in
19:59 56.1 °F 48.9 °F 29.8 in SSE 2 mph   77% 0 in
20:04 56.1 °F 48.9 °F 29.8 in SSE 0.6 mph 3.1 mph 77% 0 in
20:09 56.1 °F 49.1 °F 29.8 in Calm   4.3 mph 77.4% 0 in
20:14 55.9 °F 49.3 °F 29.8 in NNE 1 mph 4 mph 78% 0 in
20:19 55.9 °F 49.3 °F 29.8 in NNE 1.4 mph   78% 0 in
20:24 55.9 °F 49.3 °F 29.8 in NNE 0.4 mph 3.1 mph 78% 0 in
20:29 55.9 °F 49.1 °F 29.8 in Calm   4.6 mph 77.4% 0 in
20:34 56.1 °F 48.9 °F 29.8 in SSE 1.3 mph 5 mph 77% 0 in
20:39 56.1 °F 48.9 °F 29.8 in SSE 1.8 mph 2.4 mph 77% 0 in
20:44 56.1 °F 48.9 °F 29.8 in SSE 0.5 mph 3.5 mph 77% 0 in
20:49 56.1 °F 48.9 °F 29.8 in Calm   4.6 mph 77% 0 in
20:54 56.1 °F 48.9 °F 29.8 in Sur 1.4 mph 5 mph 77% 0 in
20:59 56.1 °F 48.9 °F 29.8 in SSE 2 mph 5.9 mph 77% 0 in
21:04 56.1 °F 48.9 °F 29.8 in Sur 2.8 mph 6.2 mph 77% 0 in
21:09 55.9 °F 48.7 °F 29.8 in SSO 3.1 mph 6 mph 77% 0 in
21:14 55.9 °F 48.7 °F 29.8 in SSO 3.4 mph 5.2 mph 77% 0 in
21:19 55.8 °F 48.7 °F 29.8 in Sur 3.6 mph 5.2 mph 77% 0 in
21:24 55.8 °F 48.9 °F 29.8 in SSO 3.2 mph 5.4 mph 77.8% 0 in
21:29 55.8 °F 48.9 °F 29.8 in SSE 3.1 mph 6 mph 78% 0 in
21:34 55.8 °F 48.9 °F 29.8 in Sur 3.1 mph 5 mph 78% 0 in
21:39 55.8 °F 48.9 °F 29.8 in Sur 3.1 mph 5 mph 78% 0 in
21:44 55.6 °F 49.3 °F 29.8 in Sur 2.6 mph 5 mph 79% 0 in
21:49 55.6 °F 49.3 °F 29.8 in OSO 2.4 mph 4.7 mph 79% 0 in
21:54 55.6 °F 49.5 °F 29.8 in Oeste 2.4 mph 5 mph 79.8% 0 in
21:59 55.4 °F 49.6 °F 29.8 in OSO 2.4 mph 5 mph 80.6% 0 in
22:04 55.2 °F 49.6 °F 29.8 in SO 1.7 mph 5 mph 81% 0 in
22:09 55.2 °F 49.8 °F 29.8 in SSE 1.4 mph 4.6 mph 81.8% 0 in
22:14 55.2 °F 49.8 °F 29.8 in SSE 1.8 mph 5 mph 81.9% 0 in
22:19 55 °F 49.6 °F 29.8 in SSE 2 mph 6.9 mph 82% 0 in
22:24 54.9 °F 49.5 °F 29.8 in SSE 3.4 mph 7 mph 82.3% 0 in
22:29 54.7 °F 49.6 °F 29.8 in SSE 4 mph 7 mph 83% 0.01 in
22:34 54.5 °F 49.5 °F 29.8 in SE 3.7 mph 6 mph 83.2% 0.01 in
22:39 54.3 °F 49.6 °F 29.8 in SSE 3.6 mph 4.6 mph 84% 0.01 in
22:44 54.3 °F 49.6 °F 29.8 in Sur 2.5 mph 5 mph 84% 0.01 in
22:49 54.1 °F 49.5 °F 29.8 in SSO 2 mph 5 mph 84% 0.01 in
22:54 54.1 °F 49.6 °F 29.8 in Oeste 2 mph 4.6 mph 84.6% 0.01 in
22:59 54.1 °F 49.8 °F 29.8 in ONO 2 mph 5 mph 85.1% 0.01 in
23:04 54.1 °F 50 °F 29.8 in ONO 2.3 mph 5 mph 86% 0.01 in
23:09 54.1 °F 50 °F 29.8 in ONO 2.4 mph 4 mph 86.1% 0.01 in
23:14 54 °F 50.4 °F 29.8 in ONO 1.7 mph 2.9 mph 87% 0.01 in
23:19 54.1 °F 50.4 °F 29.8 in North 1.4 mph 5.2 mph 87% 0.01 in
23:24 54 °F 50.2 °F 29.8 in ESE 2.1 mph 5 mph 87% 0.01 in
23:29 53.8 °F 50 °F 29.7 in SE 2.4 mph 4.7 mph 87.2% 0 in
23:34 53.8 °F 50.2 °F 29.7 in SE 2.1 mph 5 mph 88% 0 in
23:39 53.6 °F 50.2 °F 29.7 in SE 2 mph 3 mph 88% 0 in
23:44 53.6 °F 50.2 °F 29.7 in SE 0.6 mph 4.7 mph 88% 0 in
23:49 53.6 °F 50.2 °F 29.7 in Calm   5 mph 88% 0 in
23:54 53.6 °F 50.4 °F 29.7 in NO 1.4 mph 3 mph 88.8% 0 in
23:59 53.4 °F 50.4 °F 29.7 in NO 2 mph 3.5 mph 89% 0 in
Murcia-Puente Tocinos, Espa?a
Compliments of Weather Underground - 3.25 mb

La estación de MeteoMurcia.com, publica sus datos en los siguientes proyectos:

Weather Underground PWS IMURCIAP2 Meteoclimatic www.awekas.at

W3Counter
Web Analytics